Kezdőlap
METAR-TAF:

METAR-TAF

Repülőterek :

William H. Morse State Airport

Bennington, Vermont, Amerikai Egyesült Államok

földrajzi szélesség: 42-53-24N, földrajzi hosszúság: 073-14-47W, magasság: 252 m

Jelenlegi meteorológiai megfigyelések

A jelentés 24 perccel ezelõtt készült, 06:54 UTC
Szélcsend
Hőmérséklet -3°C
Páratartalom 50%
Légköri nyomás 1033 hPa
Látótávolság: 16.1 km
Derült ég

METAR: KDDH 130654Z AUTO 00000KT 10SM CLR M03/M12 A3050 RMK AO2 SLP339 T10281122

Idő: 02:18 (07:18 UTC)


TAF: hiányzik

Meteorológiai megfigyelések és előrejelzések több, mint 4000 repülőtéren (METAR és TAF jelentéseket).

A térképen piros és sárga pontok jelzik az elérhető meteorológiai állomásokat.

Mozgassa az egeret a pont fölött, hogy megjelenjen az állomás neve.

Azután kattintson az időjárási megfigyelések és előrejelzések megtekintéséhez.

A térkép megváltoztatása: kattintson a fekete keresztel jelölt zöld gombra ráközelítéshez, a vonallal jelölt zöld gombra távolításhoz, vagy a zöld nyilakra a szomszédos térképek eléréséhez.


METAR-TAF: